Condicions actuals
Mostly Clear
Conditions



Pressió:
1016.92 (hPa) - 30.03 (inHG)
Visibilitat:

10.0 (km) - 6.2 (miles)
Base de Núvols

Clar (Mts) - Clar (Feets)
   Temperatura
14  °C
Temperatura
0  °C
P. rosada
39  %
 Humitat
   Velocitat del Vent
14  km/h
8  kts
9  mph
4.0  m/s
   Wind Direction
N
45°
E
90°
135°
S
180°
225°
O
270°
315°
 130°

Sur Est
   Airport Data
LELL
Sabadell Airport
Metar :LELL 151700Z 13008KT 080V170 CAVOK 14/M00 Q1017
Thu 15th April 19:00 pm
   Raw Metar Info
Raw METAR is the most common format in the world for the transmission of observational weather data. It is highly standardized through the International Civil Aviation Organization (ICAO), which allows it to be understood throughout most of the world.
   API Info
Data Provided by
https://www.checkwx.com/weather/LELL

Aviation Weather providing METAR, TAF, AIRMET, SIGMET and OUTLOOK Weather Reports
   © Info
CSS/SVG/PHP scripts were developed by weather34.com for use in the weather34 template © 2015-2021

Guide Info provided by Metar-Wikipedia